sensor_id;sensor_type;location;lat;lon;timestamp;P1;durP1;ratioP1;P2;durP2;ratioP2
9248;SDS011;4660;41.768;26.198;2023-12-04T00:01:09;1.93;;;1.73;;
9248;SDS011;4660;41.768;26.198;2023-12-04T00:03:35;1.33;;;1.23;;
9248;SDS011;4660;41.768;26.198;2023-12-04T00:06:00;5.40;;;1.10;;
9248;SDS011;4660;41.768;26.198;2023-12-04T00:08:26;1.37;;;1.27;;
9248;SDS011;4660;41.768;26.198;2023-12-04T00:10:51;1.73;;;1.20;;
9248;SDS011;4660;41.768;26.198;2023-12-04T00:13:19;2.27;;;1.77;;
9248;SDS011;4660;41.768;26.198;2023-12-04T00:15:44;1.43;;;1.30;;
9248;SDS011;4660;41.768;26.198;2023-12-04T00:18:10;1.67;;;1.57;;
9248;SDS011;4660;41.768;26.198;2023-12-04T00:20:35;2.43;;;1.50;;
9248;SDS011;4660;41.768;26.198;2023-12-04T00:23:01;1.77;;;1.60;;
9248;SDS011;4660;41.768;26.198;2023-12-04T00:25:28;2.43;;;1.47;;
9248;SDS011;4660;41.768;26.198;2023-12-04T00:27:53;4.60;;;2.40;;
9248;SDS011;4660;41.768;26.198;2023-12-04T00:30:19;4.07;;;3.20;;
9248;SDS011;4660;41.768;26.198;2023-12-04T00:32:45;4.87;;;2.67;;
9248;SDS011;4660;41.768;26.198;2023-12-04T00:35:10;4.77;;;3.73;;
9248;SDS011;4660;41.768;26.198;2023-12-04T00:37:36;3.60;;;2.80;;
9248;SDS011;4660;41.768;26.198;2023-12-04T00:40:04;1.97;;;1.70;;
9248;SDS011;4660;41.768;26.198;2023-12-04T00:42:30;1.50;;;1.40;;
9248;SDS011;4660;41.768;26.198;2023-12-04T00:44:56;1.77;;;1.50;;
9248;SDS011;4660;41.768;26.198;2023-12-04T00:47:22;3.87;;;2.30;;
9248;SDS011;4660;41.768;26.198;2023-12-04T00:49:47;3.33;;;2.20;;
9248;SDS011;4660;41.768;26.198;2023-12-04T00:52:13;1.23;;;1.13;;
9248;SDS011;4660;41.768;26.198;2023-12-04T00:54:39;3.07;;;1.93;;
9248;SDS011;4660;41.768;26.198;2023-12-04T00:57:06;3.20;;;2.00;;
9248;SDS011;4660;41.768;26.198;2023-12-04T00:59:31;1.80;;;1.50;;
9248;SDS011;4660;41.768;26.198;2023-12-04T01:02:02;1.60;;;1.50;;
9248;SDS011;4660;41.768;26.198;2023-12-04T01:04:28;1.80;;;1.70;;
9248;SDS011;4660;41.768;26.198;2023-12-04T01:06:53;3.47;;;2.07;;
9248;SDS011;4660;41.768;26.198;2023-12-04T01:09:19;4.03;;;1.60;;
9248;SDS011;4660;41.768;26.198;2023-12-04T01:11:50;2.60;;;2.20;;
9248;SDS011;4660;41.768;26.198;2023-12-04T01:14:19;1.80;;;1.70;;
9248;SDS011;4660;41.768;26.198;2023-12-04T01:16:45;1.60;;;1.50;;
9248;SDS011;4660;41.768;26.198;2023-12-04T01:19:11;2.63;;;1.97;;
9248;SDS011;4660;41.768;26.198;2023-12-04T01:21:36;1.97;;;1.70;;
9248;SDS011;4660;41.768;26.198;2023-12-04T01:24:02;1.77;;;1.50;;
9248;SDS011;4660;41.768;26.198;2023-12-04T01:26:27;1.60;;;1.40;;
9248;SDS011;4660;41.768;26.198;2023-12-04T01:28:53;2.30;;;1.60;;
9248;SDS011;4660;41.768;26.198;2023-12-04T01:31:18;2.30;;;1.57;;
9248;SDS011;4660;41.768;26.198;2023-12-04T01:33:44;1.83;;;1.60;;
9248;SDS011;4660;41.768;26.198;2023-12-04T01:36:10;2.73;;;2.37;;
9248;SDS011;4660;41.768;26.198;2023-12-04T01:38:36;1.67;;;1.57;;
9248;SDS011;4660;41.768;26.198;2023-12-04T01:41:02;2.27;;;2.07;;
9248;SDS011;4660;41.768;26.198;2023-12-04T01:43:28;2.37;;;1.73;;
9248;SDS011;4660;41.768;26.198;2023-12-04T01:45:54;4.00;;;2.20;;
9248;SDS011;4660;41.768;26.198;2023-12-04T01:48:20;2.40;;;2.20;;
9248;SDS011;4660;41.768;26.198;2023-12-04T01:50:46;3.60;;;2.43;;
9248;SDS011;4660;41.768;26.198;2023-12-04T01:53:12;3.03;;;2.80;;
9248;SDS011;4660;41.768;26.198;2023-12-04T01:55:38;4.30;;;3.87;;
9248;SDS011;4660;41.768;26.198;2023-12-04T01:58:04;3.77;;;2.60;;
9248;SDS011;4660;41.768;26.198;2023-12-04T02:00:31;3.20;;;2.47;;
9248;SDS011;4660;41.768;26.198;2023-12-04T02:02:57;3.23;;;2.50;;
9248;SDS011;4660;41.768;26.198;2023-12-04T02:05:23;2.60;;;2.40;;
9248;SDS011;4660;41.768;26.198;2023-12-04T02:07:51;3.03;;;2.73;;
9248;SDS011;4660;41.768;26.198;2023-12-04T02:10:17;3.63;;;3.03;;
9248;SDS011;4660;41.768;26.198;2023-12-04T02:12:43;3.20;;;2.87;;
9248;SDS011;4660;41.768;26.198;2023-12-04T02:15:09;4.60;;;2.63;;
9248;SDS011;4660;41.768;26.198;2023-12-04T02:17:35;2.47;;;2.27;;
9248;SDS011;4660;41.768;26.198;2023-12-04T02:20:02;3.93;;;2.80;;
9248;SDS011;4660;41.768;26.198;2023-12-04T02:22:30;3.83;;;3.53;;
9248;SDS011;4660;41.768;26.198;2023-12-04T02:24:55;3.10;;;2.80;;
9248;SDS011;4660;41.768;26.198;2023-12-04T02:27:34;3.70;;;3.23;;
9248;SDS011;4660;41.768;26.198;2023-12-04T02:30:02;4.07;;;2.40;;
9248;SDS011;4660;41.768;26.198;2023-12-04T02:32:33;2.77;;;2.50;;
9248;SDS011;4660;41.768;26.198;2023-12-04T02:35:03;4.70;;;2.60;;
9248;SDS011;4660;41.768;26.198;2023-12-04T02:37:30;4.00;;;3.10;;
9248;SDS011;4660;41.768;26.198;2023-12-04T02:39:57;3.83;;;3.13;;
9248;SDS011;4660;41.768;26.198;2023-12-04T02:42:23;2.73;;;2.53;;
9248;SDS011;4660;41.768;26.198;2023-12-04T02:44:52;2.93;;;2.53;;
9248;SDS011;4660;41.768;26.198;2023-12-04T02:47:17;2.67;;;2.43;;
9248;SDS011;4660;41.768;26.198;2023-12-04T02:49:44;2.57;;;2.03;;
9248;SDS011;4660;41.768;26.198;2023-12-04T02:52:09;4.10;;;2.70;;
9248;SDS011;4660;41.768;26.198;2023-12-04T02:54:35;2.90;;;2.33;;
9248;SDS011;4660;41.768;26.198;2023-12-04T02:57:01;3.53;;;2.53;;
9248;SDS011;4660;41.768;26.198;2023-12-04T02:59:26;2.20;;;1.83;;
9248;SDS011;4660;41.768;26.198;2023-12-04T03:01:52;2.20;;;1.93;;
9248;SDS011;4660;41.768;26.198;2023-12-04T03:04:19;4.80;;;1.93;;
9248;SDS011;4660;41.768;26.198;2023-12-04T03:06:44;2.07;;;1.97;;
9248;SDS011;4660;41.768;26.198;2023-12-04T03:09:10;2.30;;;2.10;;
9248;SDS011;4660;41.768;26.198;2023-12-04T03:11:39;2.13;;;1.93;;
9248;SDS011;4660;41.768;26.198;2023-12-04T03:14:05;1.90;;;1.80;;
9248;SDS011;4660;41.768;26.198;2023-12-04T03:16:31;2.20;;;2.00;;
9248;SDS011;4660;41.768;26.198;2023-12-04T03:18:57;2.37;;;2.10;;
9248;SDS011;4660;41.768;26.198;2023-12-04T03:21:22;1.90;;;1.80;;
9248;SDS011;4660;41.768;26.198;2023-12-04T03:23:48;2.60;;;2.00;;
9248;SDS011;4660;41.768;26.198;2023-12-04T03:26:13;5.57;;;2.00;;
9248;SDS011;4660;41.768;26.198;2023-12-04T03:28:39;1.70;;;1.60;;
9248;SDS011;4660;41.768;26.198;2023-12-04T03:31:08;2.37;;;2.17;;
9248;SDS011;4660;41.768;26.198;2023-12-04T03:33:33;2.10;;;1.93;;
9248;SDS011;4660;41.768;26.198;2023-12-04T03:35:59;2.30;;;1.63;;
9248;SDS011;4660;41.768;26.198;2023-12-04T03:38:25;2.10;;;1.90;;
9248;SDS011;4660;41.768;26.198;2023-12-04T03:40:51;4.00;;;1.80;;
9248;SDS011;4660;41.768;26.198;2023-12-04T03:43:16;2.10;;;1.40;;
9248;SDS011;4660;41.768;26.198;2023-12-04T03:45:42;1.27;;;1.27;;
9248;SDS011;4660;41.768;26.198;2023-12-04T03:48:07;2.13;;;1.93;;
9248;SDS011;4660;41.768;26.198;2023-12-04T03:50:33;3.03;;;2.30;;
9248;SDS011;4660;41.768;26.198;2023-12-04T03:52:59;2.20;;;2.00;;
9248;SDS011;4660;41.768;26.198;2023-12-04T03:55:24;3.37;;;2.07;;
9248;SDS011;4660;41.768;26.198;2023-12-04T03:57:50;2.03;;;1.87;;
9248;SDS011;4660;41.768;26.198;2023-12-04T04:00:16;3.27;;;1.90;;
9248;SDS011;4660;41.768;26.198;2023-12-04T04:02:42;2.30;;;2.10;;
9248;SDS011;4660;41.768;26.198;2023-12-04T04:05:08;2.10;;;1.90;;
9248;SDS011;4660;41.768;26.198;2023-12-04T04:07:34;2.63;;;2.43;;
9248;SDS011;4660;41.768;26.198;2023-12-04T04:09:59;2.60;;;2.40;;
9248;SDS011;4660;41.768;26.198;2023-12-04T04:12:26;2.70;;;2.33;;
9248;SDS011;4660;41.768;26.198;2023-12-04T04:14:52;4.47;;;2.60;;
9248;SDS011;4660;41.768;26.198;2023-12-04T04:17:17;3.43;;;2.87;;
9248;SDS011;4660;41.768;26.198;2023-12-04T04:19:43;6.17;;;3.10;;
9248;SDS011;4660;41.768;26.198;2023-12-04T04:22:09;3.00;;;2.70;;
9248;SDS011;4660;41.768;26.198;2023-12-04T04:24:34;6.07;;;3.20;;
9248;SDS011;4660;41.768;26.198;2023-12-04T04:27:00;4.57;;;3.10;;
9248;SDS011;4660;41.768;26.198;2023-12-04T04:29:25;2.43;;;2.23;;
9248;SDS011;4660;41.768;26.198;2023-12-04T04:31:51;3.70;;;2.63;;
9248;SDS011;4660;41.768;26.198;2023-12-04T04:34:18;3.67;;;2.80;;
9248;SDS011;4660;41.768;26.198;2023-12-04T04:36:45;3.10;;;2.80;;
9248;SDS011;4660;41.768;26.198;2023-12-04T04:39:11;2.50;;;2.30;;
9248;SDS011;4660;41.768;26.198;2023-12-04T04:41:38;6.07;;;3.07;;
9248;SDS011;4660;41.768;26.198;2023-12-04T04:44:05;4.13;;;2.87;;
9248;SDS011;4660;41.768;26.198;2023-12-04T04:46:31;3.83;;;3.40;;
9248;SDS011;4660;41.768;26.198;2023-12-04T04:48:57;2.50;;;2.30;;
9248;SDS011;4660;41.768;26.198;2023-12-04T04:51:23;3.20;;;2.90;;
9248;SDS011;4660;41.768;26.198;2023-12-04T04:53:49;2.97;;;2.60;;
9248;SDS011;4660;41.768;26.198;2023-12-04T04:56:15;3.40;;;2.97;;
9248;SDS011;4660;41.768;26.198;2023-12-04T04:58:40;4.10;;;3.70;;
9248;SDS011;4660;41.768;26.198;2023-12-04T05:01:06;5.00;;;4.50;;
9248;SDS011;4660;41.768;26.198;2023-12-04T05:03:33;4.73;;;4.23;;
9248;SDS011;4660;41.768;26.198;2023-12-04T05:06:00;4.93;;;3.90;;
9248;SDS011;4660;41.768;26.198;2023-12-04T05:08:26;5.43;;;4.77;;
9248;SDS011;4660;41.768;26.198;2023-12-04T05:10:51;3.50;;;3.20;;
9248;SDS011;4660;41.768;26.198;2023-12-04T05:13:17;4.43;;;3.50;;
9248;SDS011;4660;41.768;26.198;2023-12-04T05:15:42;3.57;;;3.17;;
9248;SDS011;4660;41.768;26.198;2023-12-04T05:18:08;2.53;;;2.33;;
9248;SDS011;4660;41.768;26.198;2023-12-04T05:20:34;4.00;;;3.03;;
9248;SDS011;4660;41.768;26.198;2023-12-04T05:23:00;3.43;;;3.00;;
9248;SDS011;4660;41.768;26.198;2023-12-04T05:25:25;3.23;;;2.73;;
9248;SDS011;4660;41.768;26.198;2023-12-04T05:27:51;3.73;;;2.70;;
9248;SDS011;4660;41.768;26.198;2023-12-04T05:30:17;2.87;;;2.53;;
9248;SDS011;4660;41.768;26.198;2023-12-04T05:32:42;3.17;;;2.57;;
9248;SDS011;4660;41.768;26.198;2023-12-04T05:35:08;2.97;;;2.67;;
9248;SDS011;4660;41.768;26.198;2023-12-04T05:37:36;2.93;;;2.63;;
9248;SDS011;4660;41.768;26.198;2023-12-04T05:40:01;3.23;;;2.37;;
9248;SDS011;4660;41.768;26.198;2023-12-04T05:42:28;2.83;;;2.53;;
9248;SDS011;4660;41.768;26.198;2023-12-04T05:44:54;4.27;;;3.50;;
9248;SDS011;4660;41.768;26.198;2023-12-04T05:47:20;4.43;;;3.70;;
9248;SDS011;4660;41.768;26.198;2023-12-04T05:49:46;6.27;;;3.87;;
9248;SDS011;4660;41.768;26.198;2023-12-04T05:52:12;4.13;;;3.33;;
9248;SDS011;4660;41.768;26.198;2023-12-04T05:54:38;4.63;;;3.42;;
9248;SDS011;4660;41.768;26.198;2023-12-04T05:57:04;3.90;;;3.50;;
9248;SDS011;4660;41.768;26.198;2023-12-04T05:59:30;4.70;;;3.00;;
9248;SDS011;4660;41.768;26.198;2023-12-04T06:01:55;3.70;;;2.93;;
9248;SDS011;4660;41.768;26.198;2023-12-04T06:04:21;3.50;;;3.20;;
9248;SDS011;4660;41.768;26.198;2023-12-04T06:06:47;3.77;;;3.37;;
9248;SDS011;4660;41.768;26.198;2023-12-04T06:09:12;4.33;;;3.20;;
9248;SDS011;4660;41.768;26.198;2023-12-04T06:11:40;4.80;;;3.10;;
9248;SDS011;4660;41.768;26.198;2023-12-04T06:14:05;3.77;;;3.07;;
9248;SDS011;4660;41.768;26.198;2023-12-04T06:16:32;4.80;;;2.87;;
9248;SDS011;4660;41.768;26.198;2023-12-04T06:18:57;3.10;;;2.70;;
9248;SDS011;4660;41.768;26.198;2023-12-04T06:21:23;6.57;;;2.93;;
9248;SDS011;4660;41.768;26.198;2023-12-04T06:23:48;4.23;;;3.47;;
9248;SDS011;4660;41.768;26.198;2023-12-04T06:26:14;4.33;;;3.43;;
9248;SDS011;4660;41.768;26.198;2023-12-04T06:28:40;4.70;;;3.37;;
9248;SDS011;4660;41.768;26.198;2023-12-04T06:31:06;5.23;;;3.27;;
9248;SDS011;4660;41.768;26.198;2023-12-04T06:33:32;3.70;;;3.07;;
9248;SDS011;4660;41.768;26.198;2023-12-04T06:35:58;6.53;;;4.07;;
9248;SDS011;4660;41.768;26.198;2023-12-04T06:38:24;6.23;;;4.07;;
9248;SDS011;4660;41.768;26.198;2023-12-04T06:40:51;4.60;;;3.40;;
9248;SDS011;4660;41.768;26.198;2023-12-04T06:43:17;4.37;;;3.00;;
9248;SDS011;4660;41.768;26.198;2023-12-04T06:45:46;3.93;;;3.13;;
9248;SDS011;4660;41.768;26.198;2023-12-04T06:48:15;4.10;;;3.00;;
9248;SDS011;4660;41.768;26.198;2023-12-04T06:50:42;3.60;;;3.03;;
9248;SDS011;4660;41.768;26.198;2023-12-04T06:53:08;4.63;;;2.93;;
9248;SDS011;4660;41.768;26.198;2023-12-04T06:55:34;4.07;;;2.90;;
9248;SDS011;4660;41.768;26.198;2023-12-04T06:57:59;3.03;;;2.73;;
9248;SDS011;4660;41.768;26.198;2023-12-04T07:00:25;4.67;;;2.90;;
9248;SDS011;4660;41.768;26.198;2023-12-04T07:02:51;3.23;;;2.73;;
9248;SDS011;4660;41.768;26.198;2023-12-04T07:05:17;3.13;;;2.83;;
9248;SDS011;4660;41.768;26.198;2023-12-04T07:07:43;7.17;;;4.27;;
9248;SDS011;4660;41.768;26.198;2023-12-04T07:10:09;6.97;;;4.67;;
9248;SDS011;4660;41.768;26.198;2023-12-04T07:12:40;4.43;;;3.80;;
9248;SDS011;4660;41.768;26.198;2023-12-04T07:15:07;4.27;;;3.53;;
9248;SDS011;4660;41.768;26.198;2023-12-04T07:17:33;3.80;;;3.23;;
9248;SDS011;4660;41.768;26.198;2023-12-04T07:19:59;5.07;;;3.80;;
9248;SDS011;4660;41.768;26.198;2023-12-04T07:22:25;4.77;;;3.30;;
9248;SDS011;4660;41.768;26.198;2023-12-04T07:24:51;5.13;;;4.03;;
9248;SDS011;4660;41.768;26.198;2023-12-04T07:27:16;5.17;;;3.80;;
9248;SDS011;4660;41.768;26.198;2023-12-04T07:29:42;4.27;;;3.87;;
9248;SDS011;4660;41.768;26.198;2023-12-04T07:32:08;5.57;;;4.50;;
9248;SDS011;4660;41.768;26.198;2023-12-04T07:34:33;5.23;;;3.73;;
9248;SDS011;4660;41.768;26.198;2023-12-04T07:36:59;3.67;;;3.27;;
9248;SDS011;4660;41.768;26.198;2023-12-04T07:39:24;4.20;;;3.80;;
9248;SDS011;4660;41.768;26.198;2023-12-04T07:41:50;4.60;;;3.57;;
9248;SDS011;4660;41.768;26.198;2023-12-04T07:44:15;4.40;;;3.47;;
9248;SDS011;4660;41.768;26.198;2023-12-04T07:46:41;3.30;;;3.00;;
9248;SDS011;4660;41.768;26.198;2023-12-04T07:49:06;5.97;;;4.10;;
9248;SDS011;4660;41.768;26.198;2023-12-04T07:51:32;5.17;;;3.57;;
9248;SDS011;4660;41.768;26.198;2023-12-04T07:53:58;5.23;;;4.20;;
9248;SDS011;4660;41.768;26.198;2023-12-04T07:56:23;3.17;;;2.67;;
9248;SDS011;4660;41.768;26.198;2023-12-04T07:58:49;2.07;;;1.90;;
9248;SDS011;4660;41.768;26.198;2023-12-04T08:01:14;4.10;;;3.17;;
9248;SDS011;4660;41.768;26.198;2023-12-04T08:03:40;3.83;;;2.70;;
9248;SDS011;4660;41.768;26.198;2023-12-04T08:06:06;3.63;;;2.60;;
9248;SDS011;4660;41.768;26.198;2023-12-04T08:08:31;3.20;;;2.90;;
9248;SDS011;4660;41.768;26.198;2023-12-04T08:10:57;5.10;;;3.60;;
9248;SDS011;4660;41.768;26.198;2023-12-04T08:13:22;7.20;;;4.63;;
9248;SDS011;4660;41.768;26.198;2023-12-04T08:15:48;3.87;;;3.07;;
9248;SDS011;4660;41.768;26.198;2023-12-04T08:18:14;4.10;;;3.70;;
9248;SDS011;4660;41.768;26.198;2023-12-04T08:20:40;5.03;;;4.53;;
9248;SDS011;4660;41.768;26.198;2023-12-04T08:23:05;6.63;;;4.00;;
9248;SDS011;4660;41.768;26.198;2023-12-04T08:25:31;5.37;;;3.30;;
9248;SDS011;4660;41.768;26.198;2023-12-04T08:27:58;6.90;;;4.23;;
9248;SDS011;4660;41.768;26.198;2023-12-04T08:30:24;4.87;;;3.17;;
9248;SDS011;4660;41.768;26.198;2023-12-04T08:32:52;3.63;;;2.53;;
9248;SDS011;4660;41.768;26.198;2023-12-04T08:35:17;4.00;;;3.20;;
9248;SDS011;4660;41.768;26.198;2023-12-04T08:37:43;4.87;;;3.33;;
9248;SDS011;4660;41.768;26.198;2023-12-04T08:40:09;5.90;;;4.20;;
9248;SDS011;4660;41.768;26.198;2023-12-04T08:42:35;11.17;;;7.27;;
9248;SDS011;4660;41.768;26.198;2023-12-04T08:45:01;3.80;;;3.40;;
9248;SDS011;4660;41.768;26.198;2023-12-04T08:47:26;5.00;;;3.40;;
9248;SDS011;4660;41.768;26.198;2023-12-04T08:49:52;3.97;;;3.47;;
9248;SDS011;4660;41.768;26.198;2023-12-04T08:52:17;4.13;;;3.27;;
9248;SDS011;4660;41.768;26.198;2023-12-04T08:54:44;5.17;;;4.53;;
9248;SDS011;4660;41.768;26.198;2023-12-04T08:57:09;6.23;;;4.83;;
9248;SDS011;4660;41.768;26.198;2023-12-04T08:59:35;5.93;;;4.50;;
9248;SDS011;4660;41.768;26.198;2023-12-04T09:02:00;28.40;;;14.20;;
9248;SDS011;4660;41.768;26.198;2023-12-04T09:04:32;8.17;;;5.53;;
9248;SDS011;4660;41.768;26.198;2023-12-04T09:06:58;6.27;;;5.20;;
9248;SDS011;4660;41.768;26.198;2023-12-04T09:09:24;6.77;;;5.40;;
9248;SDS011;4660;41.768;26.198;2023-12-04T09:11:50;6.67;;;4.77;;
9248;SDS011;4660;41.768;26.198;2023-12-04T09:14:15;4.43;;;3.80;;
9248;SDS011;4660;41.768;26.198;2023-12-04T09:16:41;3.30;;;3.00;;
9248;SDS011;4660;41.768;26.198;2023-12-04T09:19:08;3.23;;;2.93;;
9248;SDS011;4660;41.768;26.198;2023-12-04T09:21:33;3.63;;;3.20;;
9248;SDS011;4660;41.768;26.198;2023-12-04T09:23:59;4.37;;;3.63;;
9248;SDS011;4660;41.768;26.198;2023-12-04T09:26:24;4.33;;;3.90;;
9248;SDS011;4660;41.768;26.198;2023-12-04T09:28:50;5.57;;;3.93;;
9248;SDS011;4660;41.768;26.198;2023-12-04T09:31:16;4.97;;;3.73;;
9248;SDS011;4660;41.768;26.198;2023-12-04T09:33:43;4.43;;;3.50;;
9248;SDS011;4660;41.768;26.198;2023-12-04T09:36:08;3.97;;;3.57;;
9248;SDS011;4660;41.768;26.198;2023-12-04T09:38:34;3.30;;;3.00;;
9248;SDS011;4660;41.768;26.198;2023-12-04T09:41:01;4.03;;;3.23;;
9248;SDS011;4660;41.768;26.198;2023-12-04T09:43:30;4.23;;;3.60;;
9248;SDS011;4660;41.768;26.198;2023-12-04T09:45:57;3.33;;;3.00;;
9248;SDS011;4660;41.768;26.198;2023-12-04T09:48:26;3.40;;;2.90;;
9248;SDS011;4660;41.768;26.198;2023-12-04T09:50:57;3.53;;;2.93;;
9248;SDS011;4660;41.768;26.198;2023-12-04T09:53:23;4.27;;;3.60;;
9248;SDS011;4660;41.768;26.198;2023-12-04T09:55:51;4.00;;;3.43;;
9248;SDS011;4660;41.768;26.198;2023-12-04T09:58:21;3.43;;;3.03;;
9248;SDS011;4660;41.768;26.198;2023-12-04T10:00:49;3.23;;;2.93;;
9248;SDS011;4660;41.768;26.198;2023-12-04T10:03:16;3.60;;;3.30;;
9248;SDS011;4660;41.768;26.198;2023-12-04T10:05:42;4.17;;;3.77;;
9248;SDS011;4660;41.768;26.198;2023-12-04T10:08:10;3.40;;;2.97;;
9248;SDS011;4660;41.768;26.198;2023-12-04T10:10:36;3.83;;;2.97;;
9248;SDS011;4660;41.768;26.198;2023-12-04T10:13:01;3.73;;;2.53;;
9248;SDS011;4660;41.768;26.198;2023-12-04T10:15:28;2.73;;;2.53;;
9248;SDS011;4660;41.768;26.198;2023-12-04T10:17:53;2.33;;;2.13;;
9248;SDS011;4660;41.768;26.198;2023-12-04T10:20:19;3.20;;;2.90;;
9248;SDS011;4660;41.768;26.198;2023-12-04T10:22:56;3.70;;;3.40;;
9248;SDS011;4660;41.768;26.198;2023-12-04T10:25:24;3.03;;;2.80;;
9248;SDS011;4660;41.768;26.198;2023-12-04T10:27:51;5.13;;;3.20;;
9248;SDS011;4660;41.768;26.198;2023-12-04T10:30:24;4.80;;;2.73;;
9248;SDS011;4660;41.768;26.198;2023-12-04T10:32:53;3.47;;;2.90;;
9248;SDS011;4660;41.768;26.198;2023-12-04T10:35:26;4.17;;;3.07;;
9248;SDS011;4660;41.768;26.198;2023-12-04T10:37:55;2.70;;;2.50;;
9248;SDS011;4660;41.768;26.198;2023-12-04T10:40:25;3.83;;;2.87;;
9248;SDS011;4660;41.768;26.198;2023-12-04T10:42:57;4.33;;;2.77;;
9248;SDS011;4660;41.768;26.198;2023-12-04T10:45:37;2.97;;;2.60;;
9248;SDS011;4660;41.768;26.198;2023-12-04T10:48:05;2.93;;;2.63;;
9248;SDS011;4660;41.768;26.198;2023-12-04T10:50:42;4.30;;;2.90;;
9248;SDS011;4660;41.768;26.198;2023-12-04T10:53:12;3.80;;;3.30;;
9248;SDS011;4660;41.768;26.198;2023-12-04T10:55:39;4.40;;;3.40;;
9248;SDS011;4660;41.768;26.198;2023-12-04T10:58:15;3.60;;;3.10;;
9248;SDS011;4660;41.768;26.198;2023-12-04T11:00:46;4.20;;;3.57;;
9248;SDS011;4660;41.768;26.198;2023-12-04T11:03:18;4.30;;;3.33;;
9248;SDS011;4660;41.768;26.198;2023-12-04T11:05:49;5.77;;;2.93;;
9248;SDS011;4660;41.768;26.198;2023-12-04T11:08:19;3.77;;;3.17;;
9248;SDS011;4660;41.768;26.198;2023-12-04T11:10:56;3.50;;;3.13;;
9248;SDS011;4660;41.768;26.198;2023-12-04T11:13:28;3.63;;;2.90;;
9248;SDS011;4660;41.768;26.198;2023-12-04T11:16:03;3.73;;;2.90;;
9248;SDS011;4660;41.768;26.198;2023-12-04T11:18:36;3.17;;;2.70;;
9248;SDS011;4660;41.768;26.198;2023-12-04T11:21:05;3.50;;;3.20;;
9248;SDS011;4660;41.768;26.198;2023-12-04T11:23:33;5.03;;;3.90;;
9248;SDS011;4660;41.768;26.198;2023-12-04T11:26:00;4.10;;;3.70;;
9248;SDS011;4660;41.768;26.198;2023-12-04T11:28:26;5.70;;;4.23;;
9248;SDS011;4660;41.768;26.198;2023-12-04T11:30:53;5.13;;;3.60;;
9248;SDS011;4660;41.768;26.198;2023-12-04T11:33:20;5.93;;;3.87;;
9248;SDS011;4660;41.768;26.198;2023-12-04T11:35:45;4.07;;;3.60;;
9248;SDS011;4660;41.768;26.198;2023-12-04T11:38:14;4.60;;;3.43;;
9248;SDS011;4660;41.768;26.198;2023-12-04T11:40:41;4.27;;;3.70;;
9248;SDS011;4660;41.768;26.198;2023-12-04T11:43:25;3.20;;;2.90;;
9248;SDS011;4660;41.768;26.198;2023-12-04T11:45:52;3.30;;;2.60;;
9248;SDS011;4660;41.768;26.198;2023-12-04T11:48:22;3.27;;;2.57;;
9248;SDS011;4660;41.768;26.198;2023-12-04T11:50:51;2.83;;;2.33;;
9248;SDS011;4660;41.768;26.198;2023-12-04T11:53:17;2.73;;;2.43;;
9248;SDS011;4660;41.768;26.198;2023-12-04T11:55:43;2.87;;;2.67;;
9248;SDS011;4660;41.768;26.198;2023-12-04T11:58:09;2.30;;;2.07;;
9248;SDS011;4660;41.768;26.198;2023-12-04T12:00:36;2.83;;;2.50;;
9248;SDS011;4660;41.768;26.198;2023-12-04T12:03:04;3.37;;;3.07;;
9248;SDS011;4660;41.768;26.198;2023-12-04T12:05:32;2.60;;;2.40;;
9248;SDS011;4660;41.768;26.198;2023-12-04T12:08:00;6.00;;;2.60;;
9248;SDS011;4660;41.768;26.198;2023-12-04T12:10:27;2.33;;;2.13;;
9248;SDS011;4660;41.768;26.198;2023-12-04T12:12:57;2.63;;;2.40;;
9248;SDS011;4660;41.768;26.198;2023-12-04T12:15:23;2.90;;;2.60;;
9248;SDS011;4660;41.768;26.198;2023-12-04T12:17:49;3.30;;;2.30;;
9248;SDS011;4660;41.768;26.198;2023-12-04T12:20:15;3.13;;;2.27;;
9248;SDS011;4660;41.768;26.198;2023-12-04T12:22:41;3.77;;;2.70;;
9248;SDS011;4660;41.768;26.198;2023-12-04T12:25:09;2.50;;;2.30;;
9248;SDS011;4660;41.768;26.198;2023-12-04T12:27:36;2.93;;;2.50;;
9248;SDS011;4660;41.768;26.198;2023-12-04T12:30:02;3.30;;;2.50;;
9248;SDS011;4660;41.768;26.198;2023-12-04T12:32:32;2.97;;;2.50;;
9248;SDS011;4660;41.768;26.198;2023-12-04T12:34:59;2.50;;;2.30;;
9248;SDS011;4660;41.768;26.198;2023-12-04T12:37:25;4.60;;;2.90;;
9248;SDS011;4660;41.768;26.198;2023-12-04T12:39:51;2.93;;;2.63;;
9248;SDS011;4660;41.768;26.198;2023-12-04T12:42:27;3.27;;;2.97;;
9248;SDS011;4660;41.768;26.198;2023-12-04T12:44:56;3.10;;;2.67;;
9248;SDS011;4660;41.768;26.198;2023-12-04T12:47:25;3.37;;;2.70;;
9248;SDS011;4660;41.768;26.198;2023-12-04T12:49:51;3.40;;;2.83;;
9248;SDS011;4660;41.768;26.198;2023-12-04T12:52:17;2.90;;;2.70;;
9248;SDS011;4660;41.768;26.198;2023-12-04T12:54:44;5.93;;;3.40;;
9248;SDS011;4660;41.768;26.198;2023-12-04T12:57:10;5.63;;;3.37;;
9248;SDS011;4660;41.768;26.198;2023-12-04T12:59:37;5.80;;;3.60;;
9248;SDS011;4660;41.768;26.198;2023-12-04T13:02:04;7.00;;;3.93;;
9248;SDS011;4660;41.768;26.198;2023-12-04T13:04:40;6.70;;;4.27;;
9248;SDS011;4660;41.768;26.198;2023-12-04T13:07:07;7.10;;;4.17;;
9248;SDS011;4660;41.768;26.198;2023-12-04T13:09:34;5.97;;;4.50;;
9248;SDS011;4660;41.768;26.198;2023-12-04T13:12:03;5.20;;;3.90;;
9248;SDS011;4660;41.768;26.198;2023-12-04T13:14:29;5.57;;;4.20;;
9248;SDS011;4660;41.768;26.198;2023-12-04T13:16:55;5.27;;;4.27;;
9248;SDS011;4660;41.768;26.198;2023-12-04T13:19:22;8.83;;;4.10;;
9248;SDS011;4660;41.768;26.198;2023-12-04T13:21:48;6.33;;;4.37;;
9248;SDS011;4660;41.768;26.198;2023-12-04T13:24:14;4.17;;;3.53;;
9248;SDS011;4660;41.768;26.198;2023-12-04T13:26:40;6.83;;;4.30;;
9248;SDS011;4660;41.768;26.198;2023-12-04T13:29:06;4.17;;;3.20;;
9248;SDS011;4660;41.768;26.198;2023-12-04T13:31:32;4.13;;;3.13;;
9248;SDS011;4660;41.768;26.198;2023-12-04T13:33:59;4.33;;;3.20;;
9248;SDS011;4660;41.768;26.198;2023-12-04T13:36:24;3.87;;;3.20;;
9248;SDS011;4660;41.768;26.198;2023-12-04T13:38:50;7.23;;;3.60;;
9248;SDS011;4660;41.768;26.198;2023-12-04T13:41:16;4.70;;;2.80;;
9248;SDS011;4660;41.768;26.198;2023-12-04T13:44:00;3.47;;;2.90;;
9248;SDS011;4660;41.768;26.198;2023-12-04T13:46:27;4.13;;;3.07;;
9248;SDS011;4660;41.768;26.198;2023-12-04T13:48:55;4.73;;;3.27;;
9248;SDS011;4660;41.768;26.198;2023-12-04T13:51:21;4.90;;;2.67;;
9248;SDS011;4660;41.768;26.198;2023-12-04T13:53:50;6.67;;;2.50;;
9248;SDS011;4660;41.768;26.198;2023-12-04T13:56:20;2.40;;;2.20;;
9248;SDS011;4660;41.768;26.198;2023-12-04T13:58:49;2.20;;;1.83;;
9248;SDS011;4660;41.768;26.198;2023-12-04T14:01:24;2.93;;;2.20;;
9248;SDS011;4660;41.768;26.198;2023-12-04T14:03:54;4.00;;;2.27;;
9248;SDS011;4660;41.768;26.198;2023-12-04T14:06:27;3.20;;;2.90;;
9248;SDS011;4660;41.768;26.198;2023-12-04T14:08:53;2.20;;;2.00;;
9248;SDS011;4660;41.768;26.198;2023-12-04T14:11:19;2.93;;;2.53;;
9248;SDS011;4660;41.768;26.198;2023-12-04T14:13:44;3.97;;;2.73;;
9248;SDS011;4660;41.768;26.198;2023-12-04T14:16:10;3.27;;;2.77;;
9248;SDS011;4660;41.768;26.198;2023-12-04T14:18:36;3.03;;;2.47;;
9248;SDS011;4660;41.768;26.198;2023-12-04T14:21:01;2.60;;;2.40;;
9248;SDS011;4660;41.768;26.198;2023-12-04T14:23:27;3.37;;;2.83;;
9248;SDS011;4660;41.768;26.198;2023-12-04T14:25:53;6.50;;;2.87;;
9248;SDS011;4660;41.768;26.198;2023-12-04T14:28:18;3.60;;;2.93;;
9248;SDS011;4660;41.768;26.198;2023-12-04T14:30:45;4.17;;;2.97;;
9248;SDS011;4660;41.768;26.198;2023-12-04T14:33:11;4.53;;;3.20;;
9248;SDS011;4660;41.768;26.198;2023-12-04T14:35:36;6.33;;;2.93;;
9248;SDS011;4660;41.768;26.198;2023-12-04T14:38:02;3.97;;;3.10;;
9248;SDS011;4660;41.768;26.198;2023-12-04T14:40:31;4.73;;;4.00;;
9248;SDS011;4660;41.768;26.198;2023-12-04T14:42:56;5.93;;;4.33;;
9248;SDS011;4660;41.768;26.198;2023-12-04T14:45:22;4.87;;;3.60;;
9248;SDS011;4660;41.768;26.198;2023-12-04T14:47:48;6.57;;;3.33;;
9248;SDS011;4660;41.768;26.198;2023-12-04T14:50:16;5.53;;;2.80;;
9248;SDS011;4660;41.768;26.198;2023-12-04T14:52:42;3.80;;;3.37;;
9248;SDS011;4660;41.768;26.198;2023-12-04T14:55:15;13.73;;;7.83;;
9248;SDS011;4660;41.768;26.198;2023-12-04T14:57:50;8.37;;;4.70;;